sensor_id;sensor_type;location;lat;lon;timestamp;pressure;altitude;pressure_sealevel;temperature;humidity
20027;BME280;10174;42.688;23.344;2023-01-30T00:00:56;95642.81;;;-0.61;78.97
20027;BME280;10174;42.688;23.344;2023-01-30T00:03:23;95544.75;;;-1.16;78.24
20027;BME280;10174;42.688;23.344;2023-01-30T00:05:49;95629.19;;;-0.79;78.10
20027;BME280;10174;42.688;23.344;2023-01-30T00:08:15;95633.19;;;-0.83;79.03
20027;BME280;10174;42.688;23.344;2023-01-30T00:10:40;95559.03;;;-1.40;79.39
20027;BME280;10174;42.688;23.344;2023-01-30T00:13:06;95639.28;;;-0.98;80.01
20027;BME280;10174;42.688;23.344;2023-01-30T00:15:32;95635.09;;;-0.92;79.78
20027;BME280;10174;42.688;23.344;2023-01-30T00:17:57;95628.47;;;-1.03;79.87
20027;BME280;10174;42.688;23.344;2023-01-30T00:20:23;95606.56;;;-1.03;79.52
20027;BME280;10174;42.688;23.344;2023-01-30T00:22:48;95634.31;;;-0.93;79.77
20027;BME280;10174;42.688;23.344;2023-01-30T00:25:14;95648.66;;;-0.80;79.62
20027;BME280;10174;42.688;23.344;2023-01-30T00:27:39;95652.94;;;-0.94;80.23
20027;BME280;10174;42.688;23.344;2023-01-30T00:30:05;95639.75;;;-0.94;80.39
20027;BME280;10174;42.688;23.344;2023-01-30T00:32:31;95632.38;;;-0.84;79.58
20027;BME280;10174;42.688;23.344;2023-01-30T00:34:57;95600.19;;;-1.24;80.41
20027;BME280;10174;42.688;23.344;2023-01-30T00:37:22;95523.75;;;-1.69;79.64
20027;BME280;10174;42.688;23.344;2023-01-30T00:39:48;95638.28;;;-0.97;80.70
20027;BME280;10174;42.688;23.344;2023-01-30T00:42:13;95592.09;;;-1.22;80.49
20027;BME280;10174;42.688;23.344;2023-01-30T00:44:57;95607.91;;;-1.22;80.68
20027;BME280;10174;42.688;23.344;2023-01-30T00:47:41;95606.66;;;-1.27;81.50
20027;BME280;10174;42.688;23.344;2023-01-30T00:50:07;95602.50;;;-1.36;81.16
20027;BME280;10174;42.688;23.344;2023-01-30T00:52:32;95597.09;;;-1.42;81.40
20027;BME280;10174;42.688;23.344;2023-01-30T00:54:58;95617.75;;;-1.16;81.84
20027;BME280;10174;42.688;23.344;2023-01-30T00:57:23;95611.94;;;-1.27;81.22
20027;BME280;10174;42.688;23.344;2023-01-30T00:59:48;95602.50;;;-1.36;81.00
20027;BME280;10174;42.688;23.344;2023-01-30T01:02:14;95625.13;;;-1.27;81.35
20027;BME280;10174;42.688;23.344;2023-01-30T01:04:39;95623.38;;;-1.19;81.50
20027;BME280;10174;42.688;23.344;2023-01-30T01:07:11;95621.75;;;-1.20;81.29
20027;BME280;10174;42.688;23.344;2023-01-30T01:09:38;95603.00;;;-1.26;81.31
20027;BME280;10174;42.688;23.344;2023-01-30T01:12:04;95610.22;;;-1.34;81.80
20027;BME280;10174;42.688;23.344;2023-01-30T01:14:29;95580.94;;;-1.39;81.42
20027;BME280;10174;42.688;23.344;2023-01-30T01:16:55;95580.47;;;-1.43;81.58
20027;BME280;10174;42.688;23.344;2023-01-30T01:19:21;95593.03;;;-1.15;81.48
20027;BME280;10174;42.688;23.344;2023-01-30T01:21:46;95584.47;;;-1.47;81.40
20027;BME280;10174;42.688;23.344;2023-01-30T01:24:13;95603.56;;;-1.30;81.45
20027;BME280;10174;42.688;23.344;2023-01-30T01:26:39;95564.31;;;-1.40;81.11
20027;BME280;10174;42.688;23.344;2023-01-30T01:29:05;95588.84;;;-1.24;81.31
20027;BME280;10174;42.688;23.344;2023-01-30T01:31:31;95570.19;;;-1.38;81.39
20027;BME280;10174;42.688;23.344;2023-01-30T01:33:56;95566.22;;;-1.34;81.24
20027;BME280;10174;42.688;23.344;2023-01-30T01:36:22;95562.28;;;-1.38;81.54
20027;BME280;10174;42.688;23.344;2023-01-30T01:38:47;95589.56;;;-1.16;81.16
20027;BME280;10174;42.688;23.344;2023-01-30T01:41:15;95482.13;;;-1.88;80.76
20027;BME280;10174;42.688;23.344;2023-01-30T01:44:04;95589.75;;;-1.17;80.57
20027;BME280;10174;42.688;23.344;2023-01-30T01:48:59;95587.56;;;-1.14;80.37
20027;BME280;10174;42.688;23.344;2023-01-30T01:51:39;95596.81;;;-1.03;80.54
20027;BME280;10174;42.688;23.344;2023-01-30T01:54:12;95586.03;;;-1.23;81.11
20027;BME280;10174;42.688;23.344;2023-01-30T01:56:42;95592.28;;;-1.09;80.71
20027;BME280;10174;42.688;23.344;2023-01-30T01:59:32;95589.03;;;-1.11;81.19
20027;BME280;10174;42.688;23.344;2023-01-30T02:02:02;95483.25;;;-1.68;80.77
20027;BME280;10174;42.688;23.344;2023-01-30T02:04:30;95575.56;;;-1.16;80.22
20027;BME280;10174;42.688;23.344;2023-01-30T02:07:17;95569.66;;;-1.48;80.43
20027;BME280;10174;42.688;23.344;2023-01-30T02:09:44;95590.94;;;-1.20;81.04
20027;BME280;10174;42.688;23.344;2023-01-30T02:12:12;95555.91;;;-1.29;80.38
20027;BME280;10174;42.688;23.344;2023-01-30T02:14:39;95589.91;;;-1.04;80.56
20027;BME280;10174;42.688;23.344;2023-01-30T02:17:04;95583.00;;;-1.05;80.15
20027;BME280;10174;42.688;23.344;2023-01-30T02:19:58;95584.81;;;-0.91;79.17
20027;BME280;10174;42.688;23.344;2023-01-30T02:34:10;95584.13;;;-1.14;81.09
20027;BME280;10174;42.688;23.344;2023-01-30T02:39:37;95580.09;;;-1.10;79.97
20027;BME280;10174;42.688;23.344;2023-01-30T02:42:35;95571.91;;;-1.15;79.84
20027;BME280;10174;42.688;23.344;2023-01-30T02:45:15;95567.00;;;-1.18;80.04
20027;BME280;10174;42.688;23.344;2023-01-30T02:47:50;95569.91;;;-1.13;80.46
20027;BME280;10174;42.688;23.344;2023-01-30T02:50:48;95551.44;;;-1.13;79.52
20027;BME280;10174;42.688;23.344;2023-01-30T02:53:17;95575.75;;;-1.33;79.40
20027;BME280;10174;42.688;23.344;2023-01-30T02:55:43;95584.91;;;-1.29;80.39
20027;BME280;10174;42.688;23.344;2023-01-30T02:58:09;95575.22;;;-1.28;80.13
20027;BME280;10174;42.688;23.344;2023-01-30T03:04:30;95580.38;;;-1.35;80.26
20027;BME280;10174;42.688;23.344;2023-01-30T03:06:44;95581.41;;;-1.36;79.51
20027;BME280;10174;42.688;23.344;2023-01-30T03:09:27;95583.81;;;-1.19;80.35
20027;BME280;10174;42.688;23.344;2023-01-30T03:12:02;95573.94;;;-1.17;80.03
20027;BME280;10174;42.688;23.344;2023-01-30T03:17:17;95529.56;;;-1.29;79.50
20027;BME280;10174;42.688;23.344;2023-01-30T03:19:45;95566.84;;;-1.32;79.60
20027;BME280;10174;42.688;23.344;2023-01-30T03:22:10;95559.66;;;-1.38;79.78
20027;BME280;10174;42.688;23.344;2023-01-30T03:24:36;95559.09;;;-1.33;80.45
20027;BME280;10174;42.688;23.344;2023-01-30T03:27:05;95542.22;;;-1.39;80.39
20027;BME280;10174;42.688;23.344;2023-01-30T03:29:32;95554.38;;;-1.38;80.95
20027;BME280;10174;42.688;23.344;2023-01-30T03:31:57;95551.19;;;-1.48;81.19
20027;BME280;10174;42.688;23.344;2023-01-30T03:34:23;95546.09;;;-1.35;80.58
20027;BME280;10174;42.688;23.344;2023-01-30T03:36:48;95545.47;;;-1.22;80.30
20027;BME280;10174;42.688;23.344;2023-01-30T03:39:14;95545.31;;;-1.35;80.66
20027;BME280;10174;42.688;23.344;2023-01-30T03:41:39;95528.69;;;-1.36;80.84
20027;BME280;10174;42.688;23.344;2023-01-30T03:44:05;95531.19;;;-1.28;80.61
20027;BME280;10174;42.688;23.344;2023-01-30T03:46:30;95540.66;;;-1.33;79.88
20027;BME280;10174;42.688;23.344;2023-01-30T03:48:55;95540.19;;;-1.22;80.07
20027;BME280;10174;42.688;23.344;2023-01-30T03:51:21;95521.22;;;-1.47;80.10
20027;BME280;10174;42.688;23.344;2023-01-30T03:53:46;95514.84;;;-1.38;80.06
20027;BME280;10174;42.688;23.344;2023-01-30T03:56:11;95526.84;;;-1.20;80.08
20027;BME280;10174;42.688;23.344;2023-01-30T03:58:37;95540.66;;;-1.33;80.04
20027;BME280;10174;42.688;23.344;2023-01-30T04:01:02;95504.13;;;-1.51;80.23
20027;BME280;10174;42.688;23.344;2023-01-30T04:03:28;95516.00;;;-1.26;80.53
20027;BME280;10174;42.688;23.344;2023-01-30T04:05:53;95500.72;;;-1.15;79.17
20027;BME280;10174;42.688;23.344;2023-01-30T04:08:18;95505.28;;;-1.24;78.89
20027;BME280;10174;42.688;23.344;2023-01-30T04:10:44;95525.75;;;-1.26;79.33
20027;BME280;10174;42.688;23.344;2023-01-30T04:13:09;95515.38;;;-1.57;79.59
20027;BME280;10174;42.688;23.344;2023-01-30T04:15:35;95526.59;;;-1.40;80.30
20027;BME280;10174;42.688;23.344;2023-01-30T04:18:00;95509.75;;;-1.39;79.62
20027;BME280;10174;42.688;23.344;2023-01-30T04:20:25;95524.66;;;-1.32;79.76
20027;BME280;10174;42.688;23.344;2023-01-30T04:22:51;95529.03;;;-1.39;79.70
20027;BME280;10174;42.688;23.344;2023-01-30T04:25:18;95523.78;;;-1.39;79.99
20027;BME280;10174;42.688;23.344;2023-01-30T04:27:43;95507.97;;;-1.39;79.54
20027;BME280;10174;42.688;23.344;2023-01-30T04:30:09;95509.69;;;-1.46;79.79
20027;BME280;10174;42.688;23.344;2023-01-30T04:32:34;95525.75;;;-1.56;80.73
20027;BME280;10174;42.688;23.344;2023-01-30T04:35:00;95510.84;;;-1.64;81.00
20027;BME280;10174;42.688;23.344;2023-01-30T04:37:25;95501.03;;;-1.70;81.15
20027;BME280;10174;42.688;23.344;2023-01-30T04:39:51;95527.75;;;-1.43;80.83
20027;BME280;10174;42.688;23.344;2023-01-30T04:42:16;95533.66;;;-1.56;81.06
20027;BME280;10174;42.688;23.344;2023-01-30T04:44:41;95534.31;;;-1.54;81.58
20027;BME280;10174;42.688;23.344;2023-01-30T04:47:07;95525.38;;;-1.38;80.42
20027;BME280;10174;42.688;23.344;2023-01-30T04:49:32;95428.09;;;-1.84;80.39
20027;BME280;10174;42.688;23.344;2023-01-30T04:51:57;95510.09;;;-1.28;80.43
20027;BME280;10174;42.688;23.344;2023-01-30T04:54:23;95492.13;;;-1.39;80.47
20027;BME280;10174;42.688;23.344;2023-01-30T04:56:48;95501.84;;;-1.54;81.03
20027;BME280;10174;42.688;23.344;2023-01-30T04:59:14;95472.59;;;-1.74;81.92
20027;BME280;10174;42.688;23.344;2023-01-30T05:01:39;95501.97;;;-1.63;82.01
20027;BME280;10174;42.688;23.344;2023-01-30T05:04:06;95470.44;;;-1.86;82.11
20027;BME280;10174;42.688;23.344;2023-01-30T05:06:32;95315.63;;;-2.80;82.37
20027;BME280;10174;42.688;23.344;2023-01-30T05:08:58;95493.88;;;-1.61;82.57
20027;BME280;10174;42.688;23.344;2023-01-30T05:11:24;95499.56;;;-1.57;82.31
20027;BME280;10174;42.688;23.344;2023-01-30T05:13:51;95516.66;;;-1.53;81.81
20027;BME280;10174;42.688;23.344;2023-01-30T05:16:17;95500.22;;;-1.40;81.22
20027;BME280;10174;42.688;23.344;2023-01-30T05:18:43;95520.13;;;-1.38;81.85
20027;BME280;10174;42.688;23.344;2023-01-30T05:21:11;95483.13;;;-1.45;80.75
20027;BME280;10174;42.688;23.344;2023-01-30T05:23:37;95437.00;;;-1.70;80.79
20027;BME280;10174;42.688;23.344;2023-01-30T05:26:03;95512.88;;;-1.51;82.09
20027;BME280;10174;42.688;23.344;2023-01-30T05:28:28;95520.66;;;-1.57;82.92
20027;BME280;10174;42.688;23.344;2023-01-30T05:31:03;95505.59;;;-1.64;83.11
20027;BME280;10174;42.688;23.344;2023-01-30T05:33:29;95510.31;;;-1.44;83.27
20027;BME280;10174;42.688;23.344;2023-01-30T05:35:54;95518.50;;;-1.39;83.69
20027;BME280;10174;42.688;23.344;2023-01-30T05:38:21;95412.59;;;-2.09;83.44
20027;BME280;10174;42.688;23.344;2023-01-30T05:40:46;95521.38;;;-1.64;84.31
20027;BME280;10174;42.688;23.344;2023-01-30T05:43:12;95496.31;;;-1.59;84.09
20027;BME280;10174;42.688;23.344;2023-01-30T05:45:37;95510.84;;;-1.49;82.97
20027;BME280;10174;42.688;23.344;2023-01-30T05:48:03;95408.13;;;-2.23;83.32
20027;BME280;10174;42.688;23.344;2023-01-30T05:50:30;95521.38;;;-1.64;83.98
20027;BME280;10174;42.688;23.344;2023-01-30T05:52:56;95412.03;;;-2.19;83.36
20027;BME280;10174;42.688;23.344;2023-01-30T05:55:21;95505.31;;;-1.54;83.32
20027;BME280;10174;42.688;23.344;2023-01-30T05:57:47;95531.13;;;-1.64;84.65
20027;BME280;10174;42.688;23.344;2023-01-30T06:00:13;95532.94;;;-1.65;84.54
20027;BME280;10174;42.688;23.344;2023-01-30T06:02:38;95527.94;;;-1.74;85.33
20027;BME280;10174;42.688;23.344;2023-01-30T06:05:04;95515.59;;;-1.74;85.16
20027;BME280;10174;42.688;23.344;2023-01-30T06:07:30;95526.41;;;-1.69;84.35
20027;BME280;10174;42.688;23.344;2023-01-30T06:09:56;95524.41;;;-1.82;84.51
20027;BME280;10174;42.688;23.344;2023-01-30T06:12:21;95520.88;;;-1.74;85.08
20027;BME280;10174;42.688;23.344;2023-01-30T06:14:47;95523.66;;;-1.61;84.53
20027;BME280;10174;42.688;23.344;2023-01-30T06:17:12;95507.69;;;-1.74;84.70
20027;BME280;10174;42.688;23.344;2023-01-30T06:19:37;95518.84;;;-1.72;84.68
20027;BME280;10174;42.688;23.344;2023-01-30T06:22:03;95527.03;;;-1.67;84.36
20027;BME280;10174;42.688;23.344;2023-01-30T06:24:28;95519.97;;;-1.66;84.78
20027;BME280;10174;42.688;23.344;2023-01-30T06:26:53;95525.41;;;-1.68;84.58
20027;BME280;10174;42.688;23.344;2023-01-30T06:29:19;95523.75;;;-1.69;85.20
20027;BME280;10174;42.688;23.344;2023-01-30T06:31:45;95512.13;;;-1.59;84.39
20027;BME280;10174;42.688;23.344;2023-01-30T06:34:10;95518.69;;;-1.55;84.56
20027;BME280;10174;42.688;23.344;2023-01-30T06:36:36;95498.41;;;-1.55;84.52
20027;BME280;10174;42.688;23.344;2023-01-30T06:39:02;95511.75;;;-1.56;85.04
20027;BME280;10174;42.688;23.344;2023-01-30T06:41:27;95515.50;;;-1.36;85.37
20027;BME280;10174;42.688;23.344;2023-01-30T06:43:52;95516.56;;;-1.30;85.32
20027;BME280;10174;42.688;23.344;2023-01-30T06:46:18;95520.75;;;-1.66;84.89
20027;BME280;10174;42.688;23.344;2023-01-30T06:48:43;95498.41;;;-1.85;84.80
20027;BME280;10174;42.688;23.344;2023-01-30T06:51:08;95536.22;;;-1.63;84.87
20027;BME280;10174;42.688;23.344;2023-01-30T06:53:34;95455.09;;;-2.12;85.14
20027;BME280;10174;42.688;23.344;2023-01-30T06:56:00;95542.91;;;-1.45;84.49
20027;BME280;10174;42.688;23.344;2023-01-30T06:58:26;95538.75;;;-1.54;84.61
20027;BME280;10174;42.688;23.344;2023-01-30T07:00:52;95531.31;;;-1.66;84.11
20027;BME280;10174;42.688;23.344;2023-01-30T07:03:18;95537.38;;;-1.50;84.80
20027;BME280;10174;42.688;23.344;2023-01-30T07:05:45;95534.13;;;-1.52;84.60
20027;BME280;10174;42.688;23.344;2023-01-30T07:08:11;95540.75;;;-1.41;84.45
20027;BME280;10174;42.688;23.344;2023-01-30T07:10:38;95539.75;;;-1.55;83.63
20027;BME280;10174;42.688;23.344;2023-01-30T07:13:04;95529.13;;;-1.62;83.81
20027;BME280;10174;42.688;23.344;2023-01-30T07:15:30;95511.50;;;-1.76;84.98
20027;BME280;10174;42.688;23.344;2023-01-30T07:17:55;95527.03;;;-1.67;83.93
20027;BME280;10174;42.688;23.344;2023-01-30T07:20:21;95535.19;;;-1.47;84.58
20027;BME280;10174;42.688;23.344;2023-01-30T07:22:53;95519.59;;;-1.63;84.22
20027;BME280;10174;42.688;23.344;2023-01-30T07:25:21;95533.22;;;-1.30;84.61
20027;BME280;10174;42.688;23.344;2023-01-30T07:27:50;95539.28;;;-1.29;83.76
20027;BME280;10174;42.688;23.344;2023-01-30T07:30:16;95521.28;;;-1.26;83.79
20027;BME280;10174;42.688;23.344;2023-01-30T07:32:41;95541.91;;;-1.14;83.57
20027;BME280;10174;42.688;23.344;2023-01-30T07:35:07;95561.53;;;-1.02;81.78
20027;BME280;10174;42.688;23.344;2023-01-30T07:37:33;95558.13;;;-1.17;81.89
20027;BME280;10174;42.688;23.344;2023-01-30T07:39:58;95542.53;;;-0.97;81.67
20027;BME280;10174;42.688;23.344;2023-01-30T07:42:23;95556.50;;;-0.82;81.45
20027;BME280;10174;42.688;23.344;2023-01-30T07:44:49;95536.78;;;-1.01;80.90
20027;BME280;10174;42.688;23.344;2023-01-30T07:47:14;95549.16;;;-0.86;81.29
20027;BME280;10174;42.688;23.344;2023-01-30T07:49:39;95537.31;;;-0.91;81.17
20027;BME280;10174;42.688;23.344;2023-01-30T07:52:05;95539.94;;;-0.91;81.13
20027;BME280;10174;42.688;23.344;2023-01-30T07:54:30;95550.78;;;-0.85;81.99
20027;BME280;10174;42.688;23.344;2023-01-30T07:56:55;95502.78;;;-0.96;82.09
20027;BME280;10174;42.688;23.344;2023-01-30T07:59:21;95524.47;;;-0.79;79.60
20027;BME280;10174;42.688;23.344;2023-01-30T08:01:46;95531.06;;;-0.68;79.96
20027;BME280;10174;42.688;23.344;2023-01-30T08:04:11;95441.03;;;-1.38;80.47
20027;BME280;10174;42.688;23.344;2023-01-30T08:06:37;95496.06;;;-1.13;80.66
20027;BME280;10174;42.688;23.344;2023-01-30T08:09:04;95496.06;;;-1.13;81.26
20027;BME280;10174;42.688;23.344;2023-01-30T08:11:30;95520.94;;;-0.86;80.96
20027;BME280;10174;42.688;23.344;2023-01-30T08:13:55;95424.91;;;-1.65;80.37
20027;BME280;10174;42.688;23.344;2023-01-30T08:16:20;95515.56;;;-1.14;81.68
20027;BME280;10174;42.688;23.344;2023-01-30T08:18:46;95500.28;;;-1.19;81.39
20027;BME280;10174;42.688;23.344;2023-01-30T08:21:11;95516.28;;;-1.20;81.54
20027;BME280;10174;42.688;23.344;2023-01-30T08:23:37;95500.75;;;-1.30;81.52
20027;BME280;10174;42.688;23.344;2023-01-30T08:26:03;95518.47;;;-1.24;81.43
20027;BME280;10174;42.688;23.344;2023-01-30T08:28:29;95484.84;;;-1.22;80.66
20027;BME280;10174;42.688;23.344;2023-01-30T08:30:55;95513.59;;;-1.05;82.16
20027;BME280;10174;42.688;23.344;2023-01-30T08:33:22;95489.81;;;-1.12;82.37
20027;BME280;10174;42.688;23.344;2023-01-30T08:35:48;95502.94;;;-0.82;81.69
20027;BME280;10174;42.688;23.344;2023-01-30T08:38:15;95445.34;;;-1.15;81.56
20027;BME280;10174;42.688;23.344;2023-01-30T08:40:41;95509.22;;;-0.62;80.17
20027;BME280;10174;42.688;23.344;2023-01-30T08:43:06;95503.41;;;-0.72;78.84
20027;BME280;10174;42.688;23.344;2023-01-30T08:45:32;95507.31;;;-0.90;78.97
20027;BME280;10174;42.688;23.344;2023-01-30T08:47:59;95488.69;;;-1.03;79.32
20027;BME280;10174;42.688;23.344;2023-01-30T08:50:25;95477.13;;;-1.02;79.86
20027;BME280;10174;42.688;23.344;2023-01-30T08:52:51;95498.97;;;-0.93;79.57
20027;BME280;10174;42.688;23.344;2023-01-30T08:55:16;95381.66;;;-1.55;79.54
20027;BME280;10174;42.688;23.344;2023-01-30T08:57:42;95478.34;;;-1.19;79.83
20027;BME280;10174;42.688;23.344;2023-01-30T09:00:08;95497.78;;;-1.05;79.16
20027;BME280;10174;42.688;23.344;2023-01-30T09:02:34;95478.25;;;-1.11;79.91
20027;BME280;10174;42.688;23.344;2023-01-30T09:04:59;95477.97;;;-1.16;79.21
20027;BME280;10174;42.688;23.344;2023-01-30T09:07:24;95479.41;;;-0.99;79.18
20027;BME280;10174;42.688;23.344;2023-01-30T09:09:52;95447.97;;;-1.15;79.19
20027;BME280;10174;42.688;23.344;2023-01-30T09:12:17;95482.38;;;-0.87;79.48
20027;BME280;10174;42.688;23.344;2023-01-30T09:14:43;95470.88;;;-0.79;78.47
20027;BME280;10174;42.688;23.344;2023-01-30T09:17:08;95407.28;;;-1.28;77.87
20027;BME280;10174;42.688;23.344;2023-01-30T09:19:33;95447.38;;;-0.96;78.23
20027;BME280;10174;42.688;23.344;2023-01-30T09:22:01;95443.19;;;-0.90;77.12
20027;BME280;10174;42.688;23.344;2023-01-30T09:24:27;95478.66;;;-0.93;77.64
20027;BME280;10174;42.688;23.344;2023-01-30T09:26:56;95462.06;;;-1.08;77.77
20027;BME280;10174;42.688;23.344;2023-01-30T09:29:24;95461.84;;;-0.92;78.11
20027;BME280;10174;42.688;23.344;2023-01-30T09:31:50;95452.28;;;-0.93;77.50
20027;BME280;10174;42.688;23.344;2023-01-30T09:34:15;95434.03;;;-1.09;77.70
20027;BME280;10174;42.688;23.344;2023-01-30T09:36:41;95471.25;;;-0.82;78.53
20027;BME280;10174;42.688;23.344;2023-01-30T09:39:06;95388.59;;;-1.11;77.80
20027;BME280;10174;42.688;23.344;2023-01-30T09:47:39;95456.22;;;-0.60;76.93
20027;BME280;10174;42.688;23.344;2023-01-30T09:55:56;95457.94;;;-0.96;78.02
20027;BME280;10174;42.688;23.344;2023-01-30T09:58:24;95452.53;;;-0.87;78.36
20027;BME280;10174;42.688;23.344;2023-01-30T10:00:54;95408.31;;;-0.85;77.93
20027;BME280;10174;42.688;23.344;2023-01-30T10:03:28;95444.94;;;-0.76;78.43
20027;BME280;10174;42.688;23.344;2023-01-30T10:06:01;95439.03;;;-0.78;78.20
20027;BME280;10174;42.688;23.344;2023-01-30T10:14:33;95417.97;;;-0.71;77.93
20027;BME280;10174;42.688;23.344;2023-01-30T10:22:33;95398.53;;;-0.92;76.87
20027;BME280;10174;42.688;23.344;2023-01-30T10:25:24;95293.28;;;-1.51;77.31
20027;BME280;10174;42.688;23.344;2023-01-30T10:30:25;95400.97;;;-0.90;77.28
20027;BME280;10174;42.688;23.344;2023-01-30T10:32:55;95380.69;;;-0.90;76.58
20027;BME280;10174;42.688;23.344;2023-01-30T10:35:28;95371.47;;;-0.72;75.69
20027;BME280;10174;42.688;23.344;2023-01-30T10:40:57;95365.47;;;-1.09;75.13
20027;BME280;10174;42.688;23.344;2023-01-30T10:43:35;95341.59;;;-1.01;75.37
20027;BME280;10174;42.688;23.344;2023-01-30T10:49:02;95347.97;;;-0.67;74.91
20027;BME280;10174;42.688;23.344;2023-01-30T10:51:54;95348.06;;;-0.54;74.59
20027;BME280;10174;42.688;23.344;2023-01-30T10:56:53;95331.44;;;-0.82;75.17
20027;BME280;10174;42.688;23.344;2023-01-30T11:02:33;95323.13;;;-0.79;74.54
20027;BME280;10174;42.688;23.344;2023-01-30T11:05:14;95251.47;;;-1.11;74.16
20027;BME280;10174;42.688;23.344;2023-01-30T11:07:41;95300.88;;;-0.70;73.71
20027;BME280;10174;42.688;23.344;2023-01-30T11:10:34;95294.97;;;-0.37;73.14
20027;BME280;10174;42.688;23.344;2023-01-30T11:13:12;95286.66;;;-0.34;72.43
20027;BME280;10174;42.688;23.344;2023-01-30T11:15:41;95268.03;;;-0.61;72.58
20027;BME280;10174;42.688;23.344;2023-01-30T11:18:07;95275.72;;;-0.66;73.67
20027;BME280;10174;42.688;23.344;2023-01-30T11:20:38;95267.47;;;-0.49;73.42
20027;BME280;10174;42.688;23.344;2023-01-30T11:23:07;95240.28;;;-0.50;73.47
20027;BME280;10174;42.688;23.344;2023-01-30T11:25:54;95256.06;;;-0.15;72.55
20027;BME280;10174;42.688;23.344;2023-01-30T11:28:22;95276.25;;;-0.42;72.23
20027;BME280;10174;42.688;23.344;2023-01-30T11:30:58;95258.75;;;-0.50;72.40
20027;BME280;10174;42.688;23.344;2023-01-30T11:33:35;95258.31;;;-0.54;72.85
20027;BME280;10174;42.688;23.344;2023-01-30T11:36:05;95264.31;;;-0.73;73.64
20027;BME280;10174;42.688;23.344;2023-01-30T11:38:35;95271.19;;;-0.72;73.61
20027;BME280;10174;42.688;23.344;2023-01-30T11:43:35;95160.09;;;-1.26;74.00
20027;BME280;10174;42.688;23.344;2023-01-30T11:46:05;95233.88;;;-0.69;74.39
20027;BME280;10174;42.688;23.344;2023-01-30T11:48:33;95205.03;;;-0.70;74.35
20027;BME280;10174;42.688;23.344;2023-01-30T11:51:03;95193.28;;;-0.68;73.81
20027;BME280;10174;42.688;23.344;2023-01-30T11:53:40;95214.97;;;-0.31;72.82
20027;BME280;10174;42.688;23.344;2023-01-30T11:56:14;95209.22;;;-0.48;73.30
20027;BME280;10174;42.688;23.344;2023-01-30T11:58:42;95207.97;;;-0.52;72.22
20027;BME280;10174;42.688;23.344;2023-01-30T12:01:14;95185.16;;;-0.73;73.64
20027;BME280;10174;42.688;23.344;2023-01-30T12:03:49;95176.09;;;-0.50;72.99
20027;BME280;10174;42.688;23.344;2023-01-30T12:06:29;94886.72;;;-2.28;73.02
20027;BME280;10174;42.688;23.344;2023-01-30T12:08:55;95173.78;;;-0.19;71.83
20027;BME280;10174;42.688;23.344;2023-01-30T12:14:34;95179.34;;;0.13;70.79
20027;BME280;10174;42.688;23.344;2023-01-30T12:19:39;95052.00;;;-0.77;71.41
20027;BME280;10174;42.688;23.344;2023-01-30T12:23:10;95147.19;;;-0.10;70.62
20027;BME280;10174;42.688;23.344;2023-01-30T12:25:26;95152.13;;;0.26;70.31
20027;BME280;10174;42.688;23.344;2023-01-30T12:28:28;95155.38;;;0.48;68.24
20027;BME280;10174;42.688;23.344;2023-01-30T12:31:21;95105.16;;;0.22;68.33
20027;BME280;10174;42.688;23.344;2023-01-30T12:33:47;95109.63;;;0.08;69.92
20027;BME280;10174;42.688;23.344;2023-01-30T12:36:40;95142.97;;;0.15;69.59
20027;BME280;10174;42.688;23.344;2023-01-30T13:12:14;95106.16;;;-0.06;70.51
20027;BME280;10174;42.688;23.344;2023-01-30T13:18:09;95106.78;;;0.09;70.20
20027;BME280;10174;42.688;23.344;2023-01-30T13:23:47;95101.28;;;0.17;69.69
20027;BME280;10174;42.688;23.344;2023-01-30T13:26:21;95078.72;;;-0.05;69.75
20027;BME280;10174;42.688;23.344;2023-01-30T13:28:55;95066.34;;;0.02;70.17
20027;BME280;10174;42.688;23.344;2023-01-30T13:31:24;95062.66;;;0.16;69.80
20027;BME280;10174;42.688;23.344;2023-01-30T13:34:06;95077.28;;;0.39;69.40
20027;BME280;10174;42.688;23.344;2023-01-30T13:39:12;95052.09;;;0.16;69.13
20027;BME280;10174;42.688;23.344;2023-01-30T13:41:43;95068.38;;;0.27;69.22
20027;BME280;10174;42.688;23.344;2023-01-30T13:44:25;95055.97;;;0.01;69.13
20027;BME280;10174;42.688;23.344;2023-01-30T14:00:53;95065.31;;;-0.24;70.98
20027;BME280;10174;42.688;23.344;2023-01-30T14:03:27;94951.53;;;-0.82;70.62
20027;BME280;10174;42.688;23.344;2023-01-30T14:08:27;95053.94;;;-0.04;70.07
20027;BME280;10174;42.688;23.344;2023-01-30T14:10:55;95053.53;;;-0.01;69.74
20027;BME280;10174;42.688;23.344;2023-01-30T14:13:22;95064.31;;;0.11;68.99
20027;BME280;10174;42.688;23.344;2023-01-30T14:16:00;95067.97;;;-0.10;69.81
20027;BME280;10174;42.688;23.344;2023-01-30T14:18:32;95056.16;;;-0.08;69.92
20027;BME280;10174;42.688;23.344;2023-01-30T14:21:15;95055.75;;;-0.11;70.11
20027;BME280;10174;42.688;23.344;2023-01-30T14:23:53;95063.06;;;0.13;70.15
20027;BME280;10174;42.688;23.344;2023-01-30T14:34:48;95056.94;;;-0.34;69.49
20027;BME280;10174;42.688;23.344;2023-01-30T14:40:33;95019.13;;;-0.75;71.78
20027;BME280;10174;42.688;23.344;2023-01-30T14:45:57;95043.13;;;-0.56;72.14
20027;BME280;10174;42.688;23.344;2023-01-30T14:56:59;94925.25;;;-1.37;72.77
20027;BME280;10174;42.688;23.344;2023-01-30T14:59:49;95032.13;;;-0.73;72.48
20027;BME280;10174;42.688;23.344;2023-01-30T15:02:27;94964.84;;;-1.17;72.76
20027;BME280;10174;42.688;23.344;2023-01-30T15:07:22;95045.13;;;-0.65;72.15
20027;BME280;10174;42.688;23.344;2023-01-30T15:09:56;95043.88;;;-0.82;72.47
20027;BME280;10174;42.688;23.344;2023-01-30T15:12:38;95036.16;;;-0.84;73.17
20027;BME280;10174;42.688;23.344;2023-01-30T15:15:28;95034.28;;;-0.97;72.69
20027;BME280;10174;42.688;23.344;2023-01-30T15:21:27;95034.88;;;-1.01;72.81
20027;BME280;10174;42.688;23.344;2023-01-30T15:32:19;95007.91;;;-1.45;73.78
20027;BME280;10174;42.688;23.344;2023-01-30T15:37:53;95055.66;;;-1.27;73.79
20027;BME280;10174;42.688;23.344;2023-01-30T15:40:24;94965.94;;;-1.88;74.21
20027;BME280;10174;42.688;23.344;2023-01-30T15:50:59;95032.66;;;-1.46;74.32
20027;BME280;10174;42.688;23.344;2023-01-30T15:53:32;95022.56;;;-1.36;73.48
20027;BME280;10174;42.688;23.344;2023-01-30T15:56:00;95039.59;;;-1.32;73.91